This is the latest recevied weather packets stored in our database for station/object W1BKW. If no packets are shown the sender has not sent any weather packets the latest 1 day(s).
| Time | Temp. | Humidity | Pressure | Rain* | Wind** | Luminosity | Snow |
|---|---|---|---|---|---|---|---|
| 1778004280 | 24.44° C | 45% | 1001.8 hPa | 0 mm | 6.26 m/s, 281° | 279 W/m² | - |
| 1778003376 | 24.44° C | 45% | 1002.1 hPa | 0 mm | 4.02 m/s, 268° | 75 W/m² | - |
| 1778002472 | 24.44° C | 46% | 1002.4 hPa | 0 mm | 3.13 m/s, 193° | 74 W/m² | - |
| 1778001572 | 24.44° C | 45% | 1002.7 hPa | 0 mm | 3.58 m/s, 156° | 77 W/m² | - |
| 1778000668 | 23.33° C | 47% | 1002.9 hPa | 0 mm | 6.26 m/s, 346° | 587 W/m² | - |
| 1777999767 | 22.78° C | 48% | 1003.3 hPa | 0 mm | 3.58 m/s, 199° | 209 W/m² | - |
| 1777998867 | 22.22° C | 49% | 1003.4 hPa | 0 mm | 3.13 m/s, 220° | 175 W/m² | - |
| 1777997964 | 22.78° C | 49% | 1003.8 hPa | 0 mm | 5.81 m/s, 247° | 579 W/m² | - |
| 1777997062 | 22.78° C | 48% | 1004.1 hPa | 0 mm | 1.79 m/s, 211° | 124 W/m² | - |
| 1777996157 | 22.78° C | 49% | 1004 hPa | 0 mm | 3.13 m/s, 156° | 484 W/m² | - |
| 1777995253 | 21.67° C | 50% | 1004.4 hPa | 0 mm | 1.34 m/s, 193° | 569 W/m² | - |
| 1777994353 | 20.56° C | 51% | 1004.7 hPa | 0 mm | 1.34 m/s, 238° | 605 W/m² | - |
| 1777993450 | 20° C | 53% | 1005 hPa | 0 mm | 0 m/s | 132 W/m² | - |
| 1777992546 | 20° C | 53% | 1004.9 hPa | 0 mm | 4.92 m/s, 225° | 756 W/m² | - |
| 1777991644 | 20° C | 53% | 1005 hPa | 0 mm | 1.79 m/s, 155° | 409 W/m² | - |
| 1777990741 | 18.89° C | 54% | 1004.7 hPa | 0 mm | 3.13 m/s, 216° | 714 W/m² | - |
| 1777989837 | 18.89° C | 54% | 1004.7 hPa | 0 mm | 2.24 m/s, 229° | 668 W/m² | - |
| 1777988933 | 17.78° C | 57% | 1004.9 hPa | 0 mm | 2.24 m/s, 137° | 252 W/m² | - |
| 1777988029 | 16.67° C | 59% | 1005.1 hPa | 0 mm | 2.68 m/s, 200° | 462 W/m² | - |
| 1777987125 | 16.67° C | 59% | 1005.3 hPa | 0 mm | 0.89 m/s, 161° | 491 W/m² | - |
| 1777986224 | 16.11° C | 60% | 1005.2 hPa | 0 mm | 2.24 m/s, 238° | 534 W/m² | - |
| 1777985320 | 15.56° C | 63% | 1005.3 hPa | 0 mm | 1.79 m/s, 176° | 448 W/m² | - |
| 1777984416 | 15° C | 64% | 1005.4 hPa | 0 mm | 1.79 m/s, 180° | 131 W/m² | - |
| 1777983512 | 14.44° C | 64% | 1005.4 hPa | 0 mm | 0.45 m/s, 177° | 134 W/m² | - |
| 1777982607 | 13.89° C | 66% | 1006 hPa | 0 mm | 0.89 m/s, 183° | 191 W/m² | - |
* Rain latest hour (hover to see other rain measurements)
** Current wind speed in m/s (hover to see current wind gust speed)